createdAt,value
2018-07-25T10:04:53.063Z,39.70
2018-07-25T10:07:21.496Z,40.40
2018-07-25T10:09:49.835Z,40.30
2018-07-25T10:12:18.193Z,40.50
2018-07-25T10:14:46.587Z,40.60
2018-07-25T10:17:15.020Z,40.70
2018-07-25T10:19:43.485Z,40.80
2018-07-25T10:22:11.797Z,40.90
2018-07-25T10:24:40.216Z,41.40
2018-07-25T10:27:08.671Z,41.90
2018-07-25T10:29:37.035Z,41.90
2018-07-25T10:32:05.473Z,41.60
2018-07-25T10:34:33.824Z,41.10
2018-07-25T10:37:02.291Z,40.70
2018-07-25T10:39:30.667Z,41.20
2018-07-25T10:41:59.082Z,40.40
2018-07-25T10:44:27.422Z,40.00
2018-07-25T10:46:55.794Z,39.40
2018-07-25T10:49:24.204Z,39.70
2018-07-25T10:51:52.648Z,39.80
2018-07-25T10:54:21.006Z,39.80
2018-07-25T10:56:49.360Z,39.80
2018-07-25T10:59:17.764Z,40.50
2018-07-25T11:01:46.417Z,40.10
2018-07-25T11:04:19.003Z,39.30
2018-07-25T11:06:47.490Z,39.70
2018-07-25T11:09:15.869Z,40.30
2018-07-25T11:11:44.370Z,40.10
2018-07-25T11:14:12.773Z,40.00
2018-07-25T11:16:41.097Z,39.00
2018-07-25T11:19:09.484Z,38.80
2018-07-25T11:21:37.813Z,39.00
2018-07-25T11:24:06.822Z,38.70
2018-07-25T11:26:35.179Z,38.50
2018-07-25T11:29:03.670Z,38.00
2018-07-25T11:31:32.002Z,37.40
2018-07-25T11:34:00.499Z,37.30
2018-07-25T11:36:28.912Z,37.50
2018-07-25T11:38:57.265Z,37.20
2018-07-25T11:41:25.578Z,37.50
2018-07-25T11:43:54.004Z,37.20
2018-07-25T11:46:22.350Z,37.50
2018-07-25T11:48:50.698Z,37.90
2018-07-25T11:51:19.060Z,37.60
2018-07-25T11:53:47.410Z,37.40
2018-07-25T11:56:15.801Z,37.80
2018-07-25T11:58:44.179Z,37.90
2018-07-25T12:01:12.533Z,38.20
2018-07-25T12:03:40.935Z,38.60
2018-07-25T12:06:09.616Z,38.30
2018-07-25T12:08:37.931Z,38.20
2018-07-25T12:11:07.065Z,38.00
2018-07-25T12:13:35.429Z,38.10
2018-07-25T12:16:03.808Z,37.80
2018-07-25T12:18:32.158Z,38.10
2018-07-25T12:21:00.617Z,38.00
2018-07-25T12:23:29.011Z,38.10
2018-07-25T12:25:57.421Z,38.30
2018-07-25T12:28:25.753Z,37.70
2018-07-25T12:30:54.151Z,37.20
2018-07-25T12:33:22.594Z,37.00
2018-07-25T12:35:50.934Z,36.80
2018-07-25T12:38:19.335Z,36.50
2018-07-25T12:40:47.661Z,36.40
2018-07-25T12:43:16.029Z,36.80
2018-07-25T12:45:44.389Z,36.50
2018-07-25T12:48:12.770Z,36.30
2018-07-25T12:50:41.362Z,36.40
2018-07-25T12:53:09.769Z,36.60
2018-07-25T12:55:38.143Z,36.30
2018-07-25T12:58:06.554Z,36.10
2018-07-25T13:00:35.216Z,36.70
2018-07-25T13:03:03.827Z,37.20
2018-07-25T13:05:32.232Z,37.30
2018-07-25T13:08:00.647Z,37.30
2018-07-25T13:10:29.036Z,37.50
2018-07-25T13:12:57.413Z,37.60
2018-07-25T13:15:25.772Z,37.80
2018-07-25T13:17:54.197Z,38.10
2018-07-25T13:20:22.591Z,38.30
2018-07-25T13:22:51.039Z,38.60
2018-07-25T13:25:19.401Z,38.60
2018-07-25T13:27:47.706Z,38.30
2018-07-25T13:30:16.090Z,38.10
2018-07-25T13:32:44.413Z,37.60
2018-07-25T13:35:12.809Z,37.80
2018-07-25T13:37:41.135Z,38.30
2018-07-25T13:40:09.578Z,38.00
2018-07-25T13:42:37.937Z,38.10
2018-07-25T13:45:06.413Z,37.90
2018-07-25T13:47:34.871Z,37.30
2018-07-25T13:50:03.430Z,36.80
2018-07-25T13:52:31.892Z,36.30
2018-07-25T13:55:00.269Z,36.30
2018-07-25T13:57:28.629Z,36.40
2018-07-25T13:59:57.015Z,36.20
2018-07-25T14:02:25.378Z,36.40
2018-07-25T14:04:53.808Z,36.30
2018-07-25T14:07:22.224Z,36.00
2018-07-25T14:09:50.709Z,35.80
2018-07-25T14:12:19.080Z,35.40
2018-07-25T14:14:47.468Z,35.40
2018-07-25T14:17:15.946Z,35.20
2018-07-25T14:19:44.318Z,35.20
2018-07-25T14:22:12.689Z,35.10
2018-07-25T14:24:41.152Z,35.50
2018-07-25T14:27:09.588Z,36.00
2018-07-25T14:29:37.902Z,36.30
2018-07-25T14:32:06.751Z,36.30
2018-07-25T14:34:35.201Z,36.60
2018-07-25T14:37:03.643Z,36.70
2018-07-25T14:39:31.985Z,36.80
2018-07-25T14:42:00.322Z,36.90
2018-07-25T14:44:28.795Z,36.90
2018-07-25T14:46:57.139Z,37.10
2018-07-25T14:49:25.395Z,37.10
2018-07-25T14:51:53.775Z,37.00
2018-07-25T14:54:22.223Z,37.00
2018-07-25T14:56:50.542Z,36.80
2018-07-25T14:59:18.914Z,36.60
2018-07-25T15:01:47.301Z,36.80
2018-07-25T15:04:15.682Z,36.60
2018-07-25T15:06:44.367Z,36.70
2018-07-25T15:09:15.045Z,36.50
2018-07-25T15:11:45.192Z,36.70
2018-07-25T15:14:14.300Z,36.80
2018-07-25T15:16:43.055Z,36.20
2018-07-25T15:19:16.264Z,36.00
2018-07-25T15:21:45.100Z,36.20
2018-07-25T15:24:13.966Z,36.20
2018-07-25T15:26:42.564Z,36.30
2018-07-25T15:29:11.763Z,36.40
2018-07-25T15:31:42.296Z,36.40
2018-07-25T15:34:11.551Z,36.10
2018-07-25T15:36:46.573Z,36.10
2018-07-25T15:39:23.986Z,36.10
2018-07-25T15:41:54.284Z,36.20
2018-07-25T15:44:24.746Z,36.00
2018-07-25T15:46:54.138Z,35.50
2018-07-25T15:49:25.397Z,35.70
2018-07-25T15:51:54.634Z,35.70
2018-07-25T15:54:24.035Z,35.70
2018-07-25T15:56:52.642Z,35.60
2018-07-25T15:59:23.001Z,35.70
2018-07-25T16:01:56.558Z,35.80
2018-07-25T16:04:25.576Z,36.00
2018-07-25T16:09:28.454Z,36.30
2018-07-25T16:11:58.058Z,35.80
2018-07-25T16:14:27.097Z,35.70
2018-07-25T16:16:57.211Z,35.40
2018-07-25T16:19:26.469Z,35.60
2018-07-25T16:21:55.289Z,35.60
2018-07-25T16:24:24.754Z,35.40
2018-07-25T16:26:54.694Z,35.40
2018-07-25T16:29:24.019Z,35.60
2018-07-25T16:31:53.146Z,35.60
2018-07-25T16:34:25.384Z,35.70
2018-07-25T16:37:00.357Z,35.90
2018-07-25T16:39:30.033Z,36.10
2018-07-25T16:41:58.908Z,36.20
2018-07-25T16:44:29.105Z,35.90
2018-07-25T16:46:58.330Z,36.00
2018-07-25T16:49:27.734Z,35.90
2018-07-25T16:51:56.832Z,36.00
2018-07-25T16:56:54.592Z,35.80
2018-07-25T16:59:24.341Z,35.60
2018-07-25T17:01:53.058Z,35.10
2018-07-25T17:04:22.918Z,34.70
2018-07-25T17:06:52.046Z,34.40
2018-07-25T17:09:26.308Z,34.00
2018-07-25T17:11:56.921Z,33.50
2018-07-25T17:14:27.156Z,33.00
2018-07-25T17:16:55.927Z,32.70
2018-07-25T17:19:24.652Z,32.50
2018-07-25T17:21:54.041Z,32.40
2018-07-25T17:24:24.125Z,32.40
2018-07-25T17:26:53.798Z,32.00
2018-07-25T17:29:22.547Z,31.60
2018-07-25T17:31:51.559Z,31.30
2018-07-25T17:34:20.669Z,31.20
2018-07-25T17:36:50.628Z,31.00
2018-07-25T17:39:19.665Z,31.00
2018-07-25T17:41:49.650Z,30.90
2018-07-25T17:44:20.926Z,30.80
2018-07-25T17:46:49.731Z,30.60
2018-07-25T17:49:19.921Z,30.40
2018-07-25T17:51:49.293Z,30.00
2018-07-25T17:54:18.866Z,29.60
2018-07-25T17:56:49.052Z,29.20
2018-07-25T17:59:24.439Z,29.10
2018-07-25T18:01:53.786Z,29.00
2018-07-25T18:04:23.431Z,29.00
2018-07-25T18:06:57.555Z,29.20
2018-07-25T18:09:26.878Z,29.20
2018-07-25T18:11:56.494Z,29.30
2018-07-25T18:14:25.940Z,29.30
2018-07-25T18:16:55.020Z,29.30
2018-07-25T18:19:24.822Z,29.00
2018-07-25T18:21:53.476Z,28.90
2018-07-25T18:24:22.427Z,28.90
2018-07-25T18:26:52.412Z,28.80
2018-07-25T18:29:21.460Z,28.80
2018-07-25T18:31:50.728Z,28.80
2018-07-25T18:34:19.845Z,28.80
2018-07-25T18:36:49.372Z,28.70
2018-07-25T18:39:18.422Z,28.60
2018-07-25T18:41:47.203Z,28.60
2018-07-25T18:44:21.148Z,28.60
2018-07-25T18:46:51.158Z,28.60
2018-07-25T18:49:21.026Z,28.60
2018-07-25T18:51:50.448Z,28.60
2018-07-25T18:54:20.881Z,28.60
2018-07-25T18:56:50.256Z,28.60
2018-07-25T18:59:20.330Z,28.50
2018-07-25T19:01:50.116Z,28.50
2018-07-25T19:04:19.736Z,28.50
2018-07-25T19:06:49.465Z,28.50
2018-07-25T19:09:19.004Z,28.50
2018-07-25T19:14:26.242Z,28.60
2018-07-25T19:16:55.844Z,28.60
2018-07-25T19:19:25.757Z,28.60
2018-07-25T19:21:56.013Z,28.50
2018-07-25T19:24:26.360Z,28.50
2018-07-25T19:26:56.217Z,28.40
2018-07-25T19:29:26.716Z,28.30
2018-07-25T19:31:56.253Z,28.00
2018-07-25T19:34:30.467Z,27.80
2018-07-25T19:37:01.862Z,27.90
2018-07-25T19:39:38.204Z,28.00
2018-07-25T19:42:09.239Z,27.80
2018-07-25T19:44:38.597Z,27.80
2018-07-25T19:47:08.369Z,27.80
2018-07-25T19:49:37.303Z,28.00
2018-07-25T19:52:06.499Z,27.90
2018-07-25T19:54:35.855Z,27.90
2018-07-25T19:57:04.844Z,27.90
2018-07-25T19:59:33.895Z,27.80
2018-07-25T20:02:03.138Z,27.80
2018-07-25T20:04:32.902Z,27.90
2018-07-25T20:07:02.585Z,27.90
2018-07-25T20:09:32.589Z,27.80
2018-07-25T20:12:01.824Z,27.70
2018-07-25T20:14:36.320Z,27.70
2018-07-25T20:17:05.658Z,27.70
2018-07-25T20:19:34.505Z,27.80
2018-07-25T20:22:07.355Z,27.90
2018-07-25T20:24:36.271Z,27.90
2018-07-25T20:27:06.820Z,28.00
2018-07-25T20:29:36.524Z,27.90
2018-07-25T20:32:07.013Z,28.00
2018-07-25T20:34:36.442Z,28.00
2018-07-25T20:37:05.419Z,28.00
2018-07-25T20:39:34.394Z,28.00
2018-07-25T20:42:03.651Z,28.00
2018-07-25T20:44:33.669Z,28.00
2018-07-25T20:47:03.921Z,28.00
2018-07-25T20:49:32.926Z,28.00
2018-07-25T20:52:03.249Z,27.90
2018-07-25T20:54:33.770Z,27.80
2018-07-25T20:57:03.465Z,27.80
2018-07-25T20:59:32.785Z,27.80
2018-07-25T21:02:03.038Z,27.80
2018-07-25T21:04:32.285Z,27.80
2018-07-25T21:07:01.546Z,27.80
2018-07-25T21:09:30.200Z,27.80
2018-07-25T21:11:59.860Z,27.80
2018-07-25T21:14:29.933Z,27.70
2018-07-25T21:16:59.556Z,27.70
2018-07-25T21:19:28.980Z,27.70
2018-07-25T21:21:57.422Z,27.70
2018-07-25T21:24:27.533Z,27.70
2018-07-25T21:26:57.011Z,27.80
2018-07-25T21:29:30.476Z,27.70
2018-07-25T21:32:00.530Z,27.70
2018-07-25T21:34:30.363Z,27.70
2018-07-25T21:36:59.481Z,27.60
2018-07-25T21:39:29.085Z,27.60
2018-07-25T21:41:58.661Z,27.60
2018-07-25T21:44:28.580Z,27.40
2018-07-25T21:46:59.819Z,27.50
2018-07-25T21:49:29.366Z,27.40
2018-07-25T21:51:58.141Z,27.40
2018-07-25T21:54:26.954Z,27.30
2018-07-25T21:59:26.502Z,27.10
2018-07-25T22:04:27.020Z,27.10
2018-07-25T22:06:56.191Z,27.10
2018-07-25T22:11:58.214Z,27.10
2018-07-25T22:14:27.344Z,27.10
2018-07-25T22:16:57.271Z,27.00
2018-07-25T22:19:26.971Z,27.00
2018-07-25T22:22:00.725Z,27.00
2018-07-25T22:24:29.787Z,26.90
2018-07-25T22:26:58.628Z,26.80
2018-07-25T22:29:32.055Z,26.80
2018-07-25T22:32:07.101Z,26.80
2018-07-25T22:34:36.386Z,26.70
2018-07-25T22:37:07.004Z,26.70
2018-07-25T22:39:36.472Z,26.60
2018-07-25T22:42:06.779Z,26.40
2018-07-25T22:44:37.393Z,26.40
2018-07-25T22:47:07.362Z,26.40
2018-07-25T22:49:37.015Z,26.50
2018-07-25T22:52:05.942Z,26.40
2018-07-25T22:54:40.429Z,26.40
2018-07-25T22:57:10.880Z,26.40
2018-07-25T22:59:41.686Z,26.40
2018-07-25T23:02:10.763Z,26.40
2018-07-25T23:04:41.048Z,26.30
2018-07-25T23:07:10.097Z,26.10
2018-07-25T23:09:39.278Z,26.10
2018-07-25T23:12:08.753Z,26.00
2018-07-25T23:14:38.026Z,26.10
2018-07-25T23:17:08.969Z,26.10
2018-07-25T23:19:38.121Z,26.20
2018-07-25T23:22:08.164Z,26.20
2018-07-25T23:24:38.208Z,26.10
2018-07-25T23:27:08.972Z,26.10
2018-07-25T23:29:39.678Z,26.20
2018-07-25T23:32:09.261Z,26.20
2018-07-25T23:34:40.179Z,26.10
2018-07-25T23:37:10.601Z,26.10
2018-07-25T23:39:41.710Z,26.10
2018-07-25T23:42:14.324Z,26.00
2018-07-25T23:44:48.034Z,26.10
2018-07-25T23:47:16.493Z,26.00
2018-07-25T23:49:50.103Z,26.10
2018-07-25T23:52:19.420Z,26.00
2018-07-25T23:54:49.357Z,25.90
2018-07-25T23:57:19.437Z,25.80
2018-07-25T23:59:58.245Z,25.80
